<?xml version="1.0" encoding="UTF-8" standalone="no" ?>
<gpx xmlns="http://www.topografix.com/GPX/1/1" xmlns:xsi="http://www.w3.org/2001/XMLSchema-instance" xsi:schemaLocation="http://www.topografix.com/GPX/1/1 http://www.topografix.com/GPX/1/1/gpx.xsd" version="1.1" creator="VisuGPX - https://www.visugpx.com">
  <metadata>
    <name>Vacances 2021</name>
  </metadata>
  <trk>
    <name><![CDATA[Journal actif: 2021-07-24 11:32]]></name>
    <trkseg>
      <trkpt lat="49.15483" lon="5.38046">
        <ele>202.49</ele>
        <time>2021-07-24T13:32:27Z</time>
      </trkpt>
      <trkpt lat="49.15485" lon="5.38081">
        <ele>202.98</ele>
        <time>2021-07-24T13:32:40Z</time>
      </trkpt>
      <trkpt lat="49.15516" lon="5.38159">
        <ele>202.98</ele>
        <time>2021-07-24T13:32:54Z</time>
      </trkpt>
      <trkpt lat="49.15518" lon="5.38161">
        <ele>202.98</ele>
        <time>2021-07-24T13:32:55Z</time>
      </trkpt>
      <trkpt lat="49.15519" lon="5.38162">
        <ele>202.98</ele>
        <time>2021-07-24T13:32:56Z</time>
      </trkpt>
      <trkpt lat="49.15524" lon="5.38167">
        <ele>202.98</ele>
        <time>2021-07-24T13:32:57Z</time>
      </trkpt>
      <trkpt lat="49.15519" lon="5.38162">
        <ele>202.98</ele>
        <time>2021-07-24T13:32:58Z</time>
      </trkpt>
      <trkpt lat="49.15518" lon="5.38161">
        <ele>202.98</ele>
        <time>2021-07-24T13:32:59Z</time>
      </trkpt>
      <trkpt lat="49.15516" lon="5.38158">
        <ele>202.98</ele>
        <time>2021-07-24T13:33:00Z</time>
      </trkpt>
      <trkpt lat="49.15507" lon="5.38067">
        <ele>201.53</ele>
        <time>2021-07-24T13:33:11Z</time>
      </trkpt>
      <trkpt lat="49.15503" lon="5.38051">
        <ele>201.53</ele>
        <time>2021-07-24T13:33:14Z</time>
      </trkpt>
      <trkpt lat="49.15483" lon="5.38044">
        <ele>202.01</ele>
        <time>2021-07-24T13:33:19Z</time>
      </trkpt>
      <trkpt lat="49.15483" lon="5.38045">
        <ele>201.05</ele>
        <time>2021-07-24T13:33:22Z</time>
      </trkpt>
      <trkpt lat="49.15484" lon="5.38038">
        <ele>201.05</ele>
        <time>2021-07-24T13:33:23Z</time>
      </trkpt>
      <trkpt lat="49.15485" lon="5.38029">
        <ele>200.57</ele>
        <time>2021-07-24T13:33:24Z</time>
      </trkpt>
      <trkpt lat="49.15485" lon="5.38025">
        <ele>200.57</ele>
        <time>2021-07-24T13:33:25Z</time>
      </trkpt>
      <trkpt lat="49.15487" lon="5.38011">
        <ele>199.61</ele>
        <time>2021-07-24T13:33:33Z</time>
      </trkpt>
      <trkpt lat="49.15489" lon="5.38005">
        <ele>199.13</ele>
        <time>2021-07-24T13:33:34Z</time>
      </trkpt>
      <trkpt lat="49.15497" lon="5.38001">
        <ele>198.65</ele>
        <time>2021-07-24T13:33:36Z</time>
      </trkpt>
      <trkpt lat="49.15556" lon="5.37972">
        <ele>197.69</ele>
        <time>2021-07-24T13:33:46Z</time>
      </trkpt>
      <trkpt lat="49.15607" lon="5.37954">
        <ele>197.69</ele>
        <time>2021-07-24T13:33:52Z</time>
      </trkpt>
      <trkpt lat="49.15607" lon="5.37954">
        <ele>198.17</ele>
        <time>2021-07-24T13:33:53Z</time>
      </trkpt>
      <trkpt lat="49.15613" lon="5.37955">
        <ele>198.17</ele>
        <time>2021-07-24T13:33:54Z</time>
      </trkpt>
      <trkpt lat="49.15619" lon="5.37956">
        <ele>198.17</ele>
        <time>2021-07-24T13:33:55Z</time>
      </trkpt>
      <trkpt lat="49.15625" lon="5.37957">
        <ele>198.17</ele>
        <time>2021-07-24T13:33:56Z</time>
      </trkpt>
      <trkpt lat="49.1563" lon="5.37962">
        <ele>197.69</ele>
        <time>2021-07-24T13:33:57Z</time>
      </trkpt>
      <trkpt lat="49.15636" lon="5.37966">
        <ele>197.69</ele>
        <time>2021-07-24T13:33:58Z</time>
      </trkpt>
      <trkpt lat="49.15642" lon="5.37971">
        <ele>197.69</ele>
        <time>2021-07-24T13:33:59Z</time>
      </trkpt>
      <trkpt lat="49.15648" lon="5.37978">
        <ele>197.69</ele>
        <time>2021-07-24T13:34:00Z</time>
      </trkpt>
      <trkpt lat="49.15653" lon="5.37987">
        <ele>197.69</ele>
        <time>2021-07-24T13:34:01Z</time>
      </trkpt>
      <trkpt lat="49.15656" lon="5.37997">
        <ele>197.69</ele>
        <time>2021-07-24T13:34:02Z</time>
      </trkpt>
      <trkpt lat="49.1566" lon="5.38008">
        <ele>197.69</ele>
        <time>2021-07-24T13:34:03Z</time>
      </trkpt>
      <trkpt lat="49.15663" lon="5.38019">
        <ele>197.69</ele>
        <time>2021-07-24T13:34:04Z</time>
      </trkpt>
      <trkpt lat="49.15691" lon="5.38107">
        <ele>197.21</ele>
        <time>2021-07-24T13:34:13Z</time>
      </trkpt>
      <trkpt lat="49.15691" lon="5.38107">
        <ele>197.21</ele>
        <time>2021-07-24T13:34:14Z</time>
      </trkpt>
      <trkpt lat="49.15693" lon="5.38114">
        <ele>196.73</ele>
        <time>2021-07-24T13:34:15Z</time>
      </trkpt>
      <trkpt lat="49.15695" lon="5.38119">
        <ele>196.73</ele>
        <time>2021-07-24T13:34:16Z</time>
      </trkpt>
      <trkpt lat="49.15689" lon="5.38126">
        <ele>196.25</ele>
        <time>2021-07-24T13:34:17Z</time>
      </trkpt>
      <trkpt lat="49.15689" lon="5.38126">
        <ele>195.77</ele>
        <time>2021-07-24T13:34:18Z</time>
      </trkpt>
      <trkpt lat="49.15685" lon="5.3813">
        <ele>195.28</ele>
        <time>2021-07-24T13:34:19Z</time>
      </trkpt>
      <trkpt lat="49.15664" lon="5.38163">
        <ele>193.84</ele>
        <time>2021-07-24T13:34:24Z</time>
      </trkpt>
      <trkpt lat="49.15664" lon="5.38163">
        <ele>193.36</ele>
        <time>2021-07-24T13:34:25Z</time>
      </trkpt>
      <trkpt lat="49.15661" lon="5.38169">
        <ele>193.36</ele>
        <time>2021-07-24T13:34:26Z</time>
      </trkpt>
      <trkpt lat="49.15659" lon="5.38174">
        <ele>192.88</ele>
        <time>2021-07-24T13:34:27Z</time>
      </trkpt>
      <trkpt lat="49.15657" lon="5.38181">
        <ele>193.84</ele>
        <time>2021-07-24T13:34:28Z</time>
      </trkpt>
      <trkpt lat="49.1566" lon="5.38186">
        <ele>194.32</ele>
        <time>2021-07-24T13:34:29Z</time>
      </trkpt>
      <trkpt lat="49.15662" lon="5.38192">
        <ele>194.32</ele>
        <time>2021-07-24T13:34:30Z</time>
      </trkpt>
      <trkpt lat="49.15697" lon="5.38307">
        <ele>196.73</ele>
        <time>2021-07-24T13:34:43Z</time>
      </trkpt>
      <trkpt lat="49.15741" lon="5.38442">
        <ele>197.69</ele>
        <time>2021-07-24T13:35:00Z</time>
      </trkpt>
      <trkpt lat="49.15773" lon="5.38542">
        <ele>197.69</ele>
        <time>2021-07-24T13:35:13Z</time>
      </trkpt>
      <trkpt lat="49.15804" lon="5.3862">
        <ele>199.13</ele>
        <time>2021-07-24T13:35:24Z</time>
      </trkpt>
      <trkpt lat="49.15811" lon="5.38633">
        <ele>199.13</ele>
        <time>2021-07-24T13:35:27Z</time>
      </trkpt>
      <trkpt lat="49.15808" lon="5.38639">
        <ele>198.65</ele>
        <time>2021-07-24T13:35:28Z</time>
      </trkpt>
      <trkpt lat="49.15806" lon="5.38644">
        <ele>198.65</ele>
        <time>2021-07-24T13:35:29Z</time>
      </trkpt>
      <trkpt lat="49.15802" lon="5.38654">
        <ele>198.65</ele>
        <time>2021-07-24T13:35:30Z</time>
      </trkpt>
      <trkpt lat="49.158" lon="5.38659">
        <ele>198.65</ele>
        <time>2021-07-24T13:35:31Z</time>
      </trkpt>
      <trkpt lat="49.158" lon="5.38659">
        <ele>198.17</ele>
        <time>2021-07-24T13:35:32Z</time>
      </trkpt>
      <trkpt lat="49.15769" lon="5.3873">
        <ele>197.69</ele>
        <time>2021-07-24T13:35:44Z</time>
      </trkpt>
      <trkpt lat="49.15771" lon="5.38738">
        <ele>197.69</ele>
        <time>2021-07-24T13:35:45Z</time>
      </trkpt>
      <trkpt lat="49.15773" lon="5.38743">
        <ele>197.21</ele>
        <time>2021-07-24T13:35:46Z</time>
      </trkpt>
      <trkpt lat="49.15775" lon="5.3875">
        <ele>197.21</ele>
        <time>2021-07-24T13:35:47Z</time>
      </trkpt>
      <trkpt lat="49.15788" lon="5.38783">
        <ele>199.13</ele>
        <time>2021-07-24T13:35:55Z</time>
      </trkpt>
      <trkpt lat="49.1579" lon="5.3879">
        <ele>199.61</ele>
        <time>2021-07-24T13:36:13Z</time>
      </trkpt>
      <trkpt lat="49.15792" lon="5.38794">
        <ele>199.61</ele>
        <time>2021-07-24T13:36:14Z</time>
      </trkpt>
      <trkpt lat="49.15794" lon="5.3879">
        <ele>199.13</ele>
        <time>2021-07-24T13:36:15Z</time>
      </trkpt>
      <trkpt lat="49.15832" lon="5.38725">
        <ele>199.13</ele>
        <time>2021-07-24T13:36:28Z</time>
      </trkpt>
      <trkpt lat="49.15849" lon="5.38694">
        <ele>199.61</ele>
        <time>2021-07-24T13:36:38Z</time>
      </trkpt>
      <trkpt lat="49.15853" lon="5.38686">
        <ele>200.57</ele>
        <time>2021-07-24T13:36:40Z</time>
      </trkpt>
      <trkpt lat="49.15903" lon="5.38614">
        <ele>199.13</ele>
        <time>2021-07-24T13:36:52Z</time>
      </trkpt>
      <trkpt lat="49.15924" lon="5.386">
        <ele>198.17</ele>
        <time>2021-07-24T13:37:00Z</time>
      </trkpt>
      <trkpt lat="49.1593" lon="5.386">
        <ele>197.69</ele>
        <time>2021-07-24T13:37:01Z</time>
      </trkpt>
      <trkpt lat="49.15933" lon="5.38605">
        <ele>197.69</ele>
        <time>2021-07-24T13:37:02Z</time>
      </trkpt>
      <trkpt lat="49.15936" lon="5.38612">
        <ele>197.69</ele>
        <time>2021-07-24T13:37:03Z</time>
      </trkpt>
      <trkpt lat="49.15938" lon="5.3862">
        <ele>197.21</ele>
        <time>2021-07-24T13:37:04Z</time>
      </trkpt>
      <trkpt lat="49.15939" lon="5.38628">
        <ele>197.21</ele>
        <time>2021-07-24T13:37:05Z</time>
      </trkpt>
      <trkpt lat="49.15941" lon="5.38634">
        <ele>196.73</ele>
        <time>2021-07-24T13:37:06Z</time>
      </trkpt>
      <trkpt lat="49.15944" lon="5.38641">
        <ele>196.73</ele>
        <time>2021-07-24T13:37:07Z</time>
      </trkpt>
      <trkpt lat="49.16003" lon="5.38763">
        <ele>195.77</ele>
        <time>2021-07-24T13:37:22Z</time>
      </trkpt>
      <trkpt lat="49.16054" lon="5.38864">
        <ele>198.17</ele>
        <time>2021-07-24T13:37:34Z</time>
      </trkpt>
      <trkpt lat="49.16066" lon="5.38883">
        <ele>198.65</ele>
        <time>2021-07-24T13:37:39Z</time>
      </trkpt>
      <trkpt lat="49.16069" lon="5.38889">
        <ele>198.65</ele>
        <time>2021-07-24T13:37:40Z</time>
      </trkpt>
      <trkpt lat="49.16127" lon="5.38998">
        <ele>198.17</ele>
        <time>2021-07-24T13:37:56Z</time>
      </trkpt>
      <trkpt lat="49.16131" lon="5.39004">
        <ele>198.17</ele>
        <time>2021-07-24T13:37:57Z</time>
      </trkpt>
      <trkpt lat="49.16139" lon="5.39015">
        <ele>198.17</ele>
        <time>2021-07-24T13:37:58Z</time>
      </trkpt>
      <trkpt lat="49.16199" lon="5.3906">
        <ele>198.17</ele>
        <time>2021-07-24T13:38:08Z</time>
      </trkpt>
      <trkpt lat="49.16206" lon="5.39064">
        <ele>198.17</ele>
        <time>2021-07-24T13:38:09Z</time>
      </trkpt>
      <trkpt lat="49.16213" lon="5.39067">
        <ele>198.17</ele>
        <time>2021-07-24T13:38:10Z</time>
      </trkpt>
      <trkpt lat="49.16245" lon="5.39085">
        <ele>196.73</ele>
        <time>2021-07-24T13:38:20Z</time>
      </trkpt>
      <trkpt lat="49.1625" lon="5.39092">
        <ele>196.25</ele>
        <time>2021-07-24T13:38:22Z</time>
      </trkpt>
      <trkpt lat="49.16251" lon="5.39096">
        <ele>196.25</ele>
        <time>2021-07-24T13:38:23Z</time>
      </trkpt>
      <trkpt lat="49.16253" lon="5.39106">
        <ele>196.25</ele>
        <time>2021-07-24T13:38:24Z</time>
      </trkpt>
      <trkpt lat="49.16253" lon="5.39106">
        <ele>196.25</ele>
        <time>2021-07-24T13:38:25Z</time>
      </trkpt>
      <trkpt lat="49.16254" lon="5.39111">
        <ele>197.69</ele>
        <time>2021-07-24T13:38:26Z</time>
      </trkpt>
      <trkpt lat="49.16276" lon="5.39197">
        <ele>199.61</ele>
        <time>2021-07-24T13:38:38Z</time>
      </trkpt>
      <trkpt lat="49.16321" lon="5.39336">
        <ele>200.09</ele>
        <time>2021-07-24T13:38:52Z</time>
      </trkpt>
      <trkpt lat="49.16346" lon="5.39404">
        <ele>200.57</ele>
        <time>2021-07-24T13:39:04Z</time>
      </trkpt>
      <trkpt lat="49.16381" lon="5.39523">
        <ele>200.57</ele>
        <time>2021-07-24T13:39:18Z</time>
      </trkpt>
      <trkpt lat="49.16389" lon="5.39669">
        <ele>200.57</ele>
        <time>2021-07-24T13:39:31Z</time>
      </trkpt>
      <trkpt lat="49.1639" lon="5.39705">
        <ele>200.57</ele>
        <time>2021-07-24T13:39:35Z</time>
      </trkpt>
      <trkpt lat="49.16392" lon="5.39791">
        <ele>200.57</ele>
        <time>2021-07-24T13:39:47Z</time>
      </trkpt>
      <trkpt lat="49.16398" lon="5.39986">
        <ele>200.57</ele>
        <time>2021-07-24T13:40:02Z</time>
      </trkpt>
      <trkpt lat="49.16407" lon="5.40313">
        <ele>202.98</ele>
        <time>2021-07-24T13:40:22Z</time>
      </trkpt>
      <trkpt lat="49.1641" lon="5.4042">
        <ele>204.42</ele>
        <time>2021-07-24T13:40:30Z</time>
      </trkpt>
      <trkpt lat="49.1641" lon="5.40439">
        <ele>204.9</ele>
        <time>2021-07-24T13:40:33Z</time>
      </trkpt>
      <trkpt lat="49.1641" lon="5.40446">
        <ele>204.9</ele>
        <time>2021-07-24T13:40:34Z</time>
      </trkpt>
      <trkpt lat="49.16412" lon="5.40525">
        <ele>206.34</ele>
        <time>2021-07-24T13:40:46Z</time>
      </trkpt>
      <trkpt lat="49.16418" lon="5.40532">
        <ele>206.82</ele>
        <time>2021-07-24T13:40:47Z</time>
      </trkpt>
      <trkpt lat="49.16418" lon="5.40532">
        <ele>206.82</ele>
        <time>2021-07-24T13:40:48Z</time>
      </trkpt>
      <trkpt lat="49.16421" lon="5.40537">
        <ele>207.3</ele>
        <time>2021-07-24T13:40:49Z</time>
      </trkpt>
      <trkpt lat="49.16487" lon="5.40597">
        <ele>208.74</ele>
        <time>2021-07-24T13:41:02Z</time>
      </trkpt>
      <trkpt lat="49.16547" lon="5.40631">
        <ele>210.67</ele>
        <time>2021-07-24T13:41:10Z</time>
      </trkpt>
      <trkpt lat="49.16553" lon="5.40636">
        <ele>211.15</ele>
        <time>2021-07-24T13:41:11Z</time>
      </trkpt>
      <trkpt lat="49.16558" lon="5.40641">
        <ele>211.63</ele>
        <time>2021-07-24T13:41:12Z</time>
      </trkpt>
      <trkpt lat="49.16566" lon="5.40651">
        <ele>211.63</ele>
        <time>2021-07-24T13:41:13Z</time>
      </trkpt>
      <trkpt lat="49.16566" lon="5.40651">
        <ele>212.11</ele>
        <time>2021-07-24T13:41:14Z</time>
      </trkpt>
      <trkpt lat="49.16568" lon="5.40656">
        <ele>212.11</ele>
        <time>2021-07-24T13:41:15Z</time>
      </trkpt>
      <trkpt lat="49.16569" lon="5.40659">
        <ele>213.07</ele>
        <time>2021-07-24T13:41:25Z</time>
      </trkpt>
      <trkpt lat="49.16572" lon="5.40666">
        <ele>213.07</ele>
        <time>2021-07-24T13:41:26Z</time>
      </trkpt>
      <trkpt lat="49.16573" lon="5.4067">
        <ele>213.55</ele>
        <time>2021-07-24T13:41:27Z</time>
      </trkpt>
      <trkpt lat="49.16571" lon="5.40709">
        <ele>214.99</ele>
        <time>2021-07-24T13:41:32Z</time>
      </trkpt>
      <trkpt lat="49.1657" lon="5.40719">
        <ele>215.47</ele>
        <time>2021-07-24T13:41:33Z</time>
      </trkpt>
      <trkpt lat="49.16557" lon="5.40856">
        <ele>219.8</ele>
        <time>2021-07-24T13:41:42Z</time>
      </trkpt>
      <trkpt lat="49.16581" lon="5.40991">
        <ele>224.61</ele>
        <time>2021-07-24T13:41:49Z</time>
      </trkpt>
      <trkpt lat="49.16665" lon="5.41193">
        <ele>236.62</ele>
        <time>2021-07-24T13:42:01Z</time>
      </trkpt>
      <trkpt lat="49.16707" lon="5.41305">
        <ele>239.51</ele>
        <time>2021-07-24T13:42:07Z</time>
      </trkpt>
      <trkpt lat="49.16707" lon="5.41305">
        <ele>238.06</ele>
        <time>2021-07-24T13:42:08Z</time>
      </trkpt>
      <trkpt lat="49.1671" lon="5.41322">
        <ele>237.1</ele>
        <time>2021-07-24T13:42:09Z</time>
      </trkpt>
      <trkpt lat="49.16708" lon="5.41341">
        <ele>238.06</ele>
        <time>2021-07-24T13:42:10Z</time>
      </trkpt>
      <trkpt lat="49.16706" lon="5.41357">
        <ele>238.06</ele>
        <time>2021-07-24T13:42:11Z</time>
      </trkpt>
      <trkpt lat="49.16703" lon="5.41374">
        <ele>239.02</ele>
        <time>2021-07-24T13:42:12Z</time>
      </trkpt>
      <trkpt lat="49.167" lon="5.41392">
        <ele>239.51</ele>
        <time>2021-07-24T13:42:13Z</time>
      </trkpt>
      <trkpt lat="49.16683" lon="5.41481">
        <ele>243.83</ele>
        <time>2021-07-24T13:42:18Z</time>
      </trkpt>
      <trkpt lat="49.16682" lon="5.41496">
        <ele>243.83</ele>
        <time>2021-07-24T13:42:19Z</time>
      </trkpt>
      <trkpt lat="49.1668" lon="5.41512">
        <ele>243.83</ele>
        <time>2021-07-24T13:42:20Z</time>
      </trkpt>
      <trkpt lat="49.16689" lon="5.41541">
        <ele>243.83</ele>
        <time>2021-07-24T13:42:21Z</time>
      </trkpt>
      <trkpt lat="49.16689" lon="5.41541">
        <ele>245.27</ele>
        <time>2021-07-24T13:42:22Z</time>
      </trkpt>
      <trkpt lat="49.16692" lon="5.41551">
        <ele>247.68</ele>
        <time>2021-07-24T13:42:23Z</time>
      </trkpt>
      <trkpt lat="49.16696" lon="5.41559">
        <ele>248.64</ele>
        <time>2021-07-24T13:42:24Z</time>
      </trkpt>
      <trkpt lat="49.1671" lon="5.41577">
        <ele>249.12</ele>
        <time>2021-07-24T13:42:25Z</time>
      </trkpt>
      <trkpt lat="49.1671" lon="5.41577">
        <ele>249.12</ele>
        <time>2021-07-24T13:42:26Z</time>
      </trkpt>
      <trkpt lat="49.16718" lon="5.41581">
        <ele>249.12</ele>
        <time>2021-07-24T13:42:27Z</time>
      </trkpt>
      <trkpt lat="49.16741" lon="5.41599">
        <ele>249.6</ele>
        <time>2021-07-24T13:42:30Z</time>
      </trkpt>
      <trkpt lat="49.16748" lon="5.41605">
        <ele>249.6</ele>
        <time>2021-07-24T13:42:31Z</time>
      </trkpt>
      <trkpt lat="49.16754" lon="5.4161">
        <ele>250.08</ele>
        <time>2021-07-24T13:42:32Z</time>
      </trkpt>
      <trkpt lat="49.16759" lon="5.41621">
        <ele>252</ele>
        <time>2021-07-24T13:42:33Z</time>
      </trkpt>
      <trkpt lat="49.16768" lon="5.41646">
        <ele>252.48</ele>
        <time>2021-07-24T13:42:34Z</time>
      </trkpt>
      <trkpt lat="49.16768" lon="5.41646">
        <ele>252</ele>
        <time>2021-07-24T13:42:35Z</time>
      </trkpt>
      <trkpt lat="49.16769" lon="5.41662">
        <ele>251.04</ele>
        <time>2021-07-24T13:42:36Z</time>
      </trkpt>
      <trkpt lat="49.1677" lon="5.4168">
        <ele>251.04</ele>
        <time>2021-07-24T13:42:37Z</time>
      </trkpt>
      <trkpt lat="49.16783" lon="5.41882">
        <ele>253.93</ele>
        <time>2021-07-24T13:42:48Z</time>
      </trkpt>
      <trkpt lat="49.16787" lon="5.419">
        <ele>255.37</ele>
        <time>2021-07-24T13:42:49Z</time>
      </trkpt>
      <trkpt lat="49.16855" lon="5.42086">
        <ele>265.94</ele>
        <time>2021-07-24T13:43:00Z</time>
      </trkpt>
      <trkpt lat="49.16862" lon="5.42098">
        <ele>267.38</ele>
        <time>2021-07-24T13:43:01Z</time>
      </trkpt>
      <trkpt lat="49.16869" lon="5.4211">
        <ele>267.38</ele>
        <time>2021-07-24T13:43:02Z</time>
      </trkpt>
      <trkpt lat="49.16879" lon="5.42115">
        <ele>267.38</ele>
        <time>2021-07-24T13:43:03Z</time>
      </trkpt>
      <trkpt lat="49.16888" lon="5.42117">
        <ele>267.86</ele>
        <time>2021-07-24T13:43:04Z</time>
      </trkpt>
      <trkpt lat="49.16899" lon="5.42114">
        <ele>267.86</ele>
        <time>2021-07-24T13:43:05Z</time>
      </trkpt>
      <trkpt lat="49.16907" lon="5.42105">
        <ele>269.79</ele>
        <time>2021-07-24T13:43:06Z</time>
      </trkpt>
      <trkpt lat="49.16916" lon="5.42093">
        <ele>271.23</ele>
        <time>2021-07-24T13:43:07Z</time>
      </trkpt>
      <trkpt lat="49.16918" lon="5.4208">
        <ele>270.75</ele>
        <time>2021-07-24T13:43:08Z</time>
      </trkpt>
      <trkpt lat="49.16921" lon="5.42063">
        <ele>270.75</ele>
        <time>2021-07-24T13:43:09Z</time>
      </trkpt>
      <trkpt lat="49.16923" lon="5.42045">
        <ele>271.71</ele>
        <time>2021-07-24T13:43:10Z</time>
      </trkpt>
      <trkpt lat="49.16931" lon="5.41993">
        <ele>271.71</ele>
        <time>2021-07-24T13:43:13Z</time>
      </trkpt>
      <trkpt lat="49.16933" lon="5.41978">
        <ele>272.19</ele>
        <time>2021-07-24T13:43:14Z</time>
      </trkpt>
      <trkpt lat="49.16938" lon="5.41965">
        <ele>273.15</ele>
        <time>2021-07-24T13:43:15Z</time>
      </trkpt>
      <trkpt lat="49.17012" lon="5.4183">
        <ele>279.4</ele>
        <time>2021-07-24T13:43:26Z</time>
      </trkpt>
      <trkpt lat="49.17036" lon="5.41802">
        <ele>280.36</ele>
        <time>2021-07-24T13:43:29Z</time>
      </trkpt>
      <trkpt lat="49.17046" lon="5.41796">
        <ele>281.32</ele>
        <time>2021-07-24T13:43:30Z</time>
      </trkpt>
      <trkpt lat="49.17057" lon="5.41792">
        <ele>282.28</ele>
        <time>2021-07-24T13:43:31Z</time>
      </trkpt>
      <trkpt lat="49.17077" lon="5.41798">
        <ele>282.77</ele>
        <time>2021-07-24T13:43:32Z</time>
      </trkpt>
      <trkpt lat="49.17086" lon="5.41806">
        <ele>283.25</ele>
        <time>2021-07-24T13:43:33Z</time>
      </trkpt>
      <trkpt lat="49.17095" lon="5.41815">
        <ele>285.17</ele>
        <time>2021-07-24T13:43:34Z</time>
      </trkpt>
      <trkpt lat="49.17103" lon="5.41823">
        <ele>285.65</ele>
        <time>2021-07-24T13:43:35Z</time>
      </trkpt>
      <trkpt lat="49.17111" lon="5.41831">
        <ele>286.61</ele>
        <time>2021-07-24T13:43:36Z</time>
      </trkpt>
      <trkpt lat="49.1712" lon="5.4184">
        <ele>287.57</ele>
        <time>2021-07-24T13:43:37Z</time>
      </trkpt>
      <trkpt lat="49.1712" lon="5.4184">
        <ele>288.05</ele>
        <time>2021-07-24T13:43:38Z</time>
      </trkpt>
      <trkpt lat="49.17129" lon="5.41849">
        <ele>288.53</ele>
        <time>2021-07-24T13:43:39Z</time>
      </trkpt>
      <trkpt lat="49.17139" lon="5.41857">
        <ele>289.01</ele>
        <time>2021-07-24T13:43:40Z</time>
      </trkpt>
      <trkpt lat="49.17152" lon="5.41863">
        <ele>289.49</ele>
        <time>2021-07-24T13:43:41Z</time>
      </trkpt>
      <trkpt lat="49.17338" lon="5.41929">
        <ele>298.15</ele>
        <time>2021-07-24T13:43:54Z</time>
      </trkpt>
      <trkpt lat="49.17469" lon="5.42015">
        <ele>304.88</ele>
        <time>2021-07-24T13:44:03Z</time>
      </trkpt>
      <trkpt lat="49.17469" lon="5.42015">
        <ele>305.84</ele>
        <time>2021-07-24T13:44:04Z</time>
      </trkpt>
      <trkpt lat="49.17474" lon="5.42021">
        <ele>307.28</ele>
        <time>2021-07-24T13:44:05Z</time>
      </trkpt>
      <trkpt lat="49.17477" lon="5.42038">
        <ele>308.72</ele>
        <time>2021-07-24T13:44:06Z</time>
      </trkpt>
      <trkpt lat="49.17481" lon="5.42053">
        <ele>308.72</ele>
        <time>2021-07-24T13:44:07Z</time>
      </trkpt>
      <trkpt lat="49.17482" lon="5.42071">
        <ele>309.2</ele>
        <time>2021-07-24T13:44:08Z</time>
      </trkpt>
      <trkpt lat="49.17483" lon="5.4209">
        <ele>310.16</ele>
        <time>2021-07-24T13:44:09Z</time>
      </trkpt>
      <trkpt lat="49.17485" lon="5.42128">
        <ele>311.6</ele>
        <time>2021-07-24T13:44:11Z</time>
      </trkpt>
      <trkpt lat="49.17486" lon="5.42146">
        <ele>312.09</ele>
        <time>2021-07-24T13:44:12Z</time>
      </trkpt>
      <trkpt lat="49.17489" lon="5.42166">
        <ele>313.05</ele>
        <time>2021-07-24T13:44:13Z</time>
      </trkpt>
      <trkpt lat="49.17535" lon="5.42397">
        <ele>321.7</ele>
        <time>2021-07-24T13:44:24Z</time>
      </trkpt>
      <trkpt lat="49.17599" lon="5.42712">
        <ele>334.2</ele>
        <time>2021-07-24T13:44:38Z</time>
      </trkpt>
      <trkpt lat="49.17608" lon="5.42732">
        <ele>335.16</ele>
        <time>2021-07-24T13:44:39Z</time>
      </trkpt>
      <trkpt lat="49.17617" lon="5.42751">
        <ele>336.6</ele>
        <time>2021-07-24T13:44:40Z</time>
      </trkpt>
      <trkpt lat="49.17638" lon="5.4278">
        <ele>338.04</ele>
        <time>2021-07-24T13:44:41Z</time>
      </trkpt>
      <trkpt lat="49.17651" lon="5.42794">
        <ele>339</ele>
        <time>2021-07-24T13:44:42Z</time>
      </trkpt>
      <trkpt lat="49.17663" lon="5.42804">
        <ele>339.48</ele>
        <time>2021-07-24T13:44:43Z</time>
      </trkpt>
      <trkpt lat="49.17678" lon="5.42813">
        <ele>339</ele>
        <time>2021-07-24T13:44:44Z</time>
      </trkpt>
      <trkpt lat="49.17678" lon="5.42813">
        <ele>339.48</ele>
        <time>2021-07-24T13:44:45Z</time>
      </trkpt>
      <trkpt lat="49.17693" lon="5.42822">
        <ele>339</ele>
        <time>2021-07-24T13:44:46Z</time>
      </trkpt>
      <trkpt lat="49.17708" lon="5.42827">
        <ele>339.48</ele>
        <time>2021-07-24T13:44:47Z</time>
      </trkpt>
      <trkpt lat="49.17741" lon="5.42827">
        <ele>339.96</ele>
        <time>2021-07-24T13:44:48Z</time>
      </trkpt>
      <trkpt lat="49.17756" lon="5.42825">
        <ele>341.41</ele>
        <time>2021-07-24T13:44:49Z</time>
      </trkpt>
      <trkpt lat="49.17756" lon="5.42825">
        <ele>342.37</ele>
        <time>2021-07-24T13:44:50Z</time>
      </trkpt>
      <trkpt lat="49.17773" lon="5.42817">
        <ele>342.85</ele>
        <time>2021-07-24T13:44:51Z</time>
      </trkpt>
      <trkpt lat="49.17896" lon="5.42772">
        <ele>342.85</ele>
        <time>2021-07-24T13:45:00Z</time>
      </trkpt>
      <trkpt lat="49.18027" lon="5.42808">
        <ele>341.89</ele>
        <time>2021-07-24T13:45:09Z</time>
      </trkpt>
      <trkpt lat="49.18211" lon="5.42883">
        <ele>339</ele>
        <time>2021-07-24T13:45:19Z</time>
      </trkpt>
      <trkpt lat="49.18314" lon="5.42915">
        <ele>339.96</ele>
        <time>2021-07-24T13:45:26Z</time>
      </trkpt>
      <trkpt lat="49.18328" lon="5.42917">
        <ele>341.89</ele>
        <time>2021-07-24T13:45:27Z</time>
      </trkpt>
      <trkpt lat="49.1836" lon="5.42912">
        <ele>342.85</ele>
        <time>2021-07-24T13:45:28Z</time>
      </trkpt>
      <trkpt lat="49.18408" lon="5.42904">
        <ele>344.77</ele>
        <time>2021-07-24T13:45:32Z</time>
      </trkpt>
      <trkpt lat="49.18425" lon="5.42904">
        <ele>345.25</ele>
        <time>2021-07-24T13:45:33Z</time>
      </trkpt>
      <trkpt lat="49.18441" lon="5.42908">
        <ele>345.25</ele>
        <time>2021-07-24T13:45:34Z</time>
      </trkpt>
      <trkpt lat="49.18458" lon="5.42911">
        <ele>345.25</ele>
        <time>2021-07-24T13:45:35Z</time>
      </trkpt>
      <trkpt lat="49.18472" lon="5.42921">
        <ele>344.77</ele>
        <time>2021-07-24T13:45:36Z</time>
      </trkpt>
      <trkpt lat="49.18489" lon="5.42933">
        <ele>345.25</ele>
        <time>2021-07-24T13:45:37Z</time>
      </trkpt>
      <trkpt lat="49.18521" lon="5.42962">
        <ele>345.73</ele>
        <time>2021-07-24T13:45:38Z</time>
      </trkpt>
      <trkpt lat="49.18536" lon="5.42978">
        <ele>346.69</ele>
        <time>2021-07-24T13:45:39Z</time>
      </trkpt>
      <trkpt lat="49.18711" lon="5.43165">
        <ele>351.98</ele>
        <time>2021-07-24T13:45:51Z</time>
      </trkpt>
      <trkpt lat="49.18988" lon="5.43472">
        <ele>355.34</ele>
        <time>2021-07-24T13:46:07Z</time>
      </trkpt>
      <trkpt lat="49.19143" lon="5.43678">
        <ele>356.31</ele>
        <time>2021-07-24T13:46:18Z</time>
      </trkpt>
      <trkpt lat="49.1921" lon="5.43769">
        <ele>354.86</ele>
        <time>2021-07-24T13:46:25Z</time>
      </trkpt>
      <trkpt lat="49.19218" lon="5.4378">
        <ele>354.38</ele>
        <time>2021-07-24T13:46:32Z</time>
      </trkpt>
      <trkpt lat="49.19218" lon="5.4378">
        <ele>354.38</ele>
        <time>2021-07-24T13:46:38Z</time>
      </trkpt>
      <trkpt lat="49.19219" lon="5.43782">
        <ele>354.38</ele>
        <time>2021-07-24T13:46:39Z</time>
      </trkpt>
      <trkpt lat="49.19226" lon="5.43784">
        <ele>354.38</ele>
        <time>2021-07-24T13:46:40Z</time>
      </trkpt>
      <trkpt lat="49.19226" lon="5.43784">
        <ele>353.9</ele>
        <time>2021-07-24T13:46:41Z</time>
      </trkpt>
      <trkpt lat="49.1923" lon="5.4378">
        <ele>353.42</ele>
        <time>2021-07-24T13:46:42Z</time>
      </trkpt>
      <trkpt lat="49.19294" lon="5.43715">
        <ele>352.94</ele>
        <time>2021-07-24T13:46:51Z</time>
      </trkpt>
      <trkpt lat="49.19392" lon="5.43581">
        <ele>351.02</ele>
        <time>2021-07-24T13:47:01Z</time>
      </trkpt>
      <trkpt lat="49.19464" lon="5.43479">
        <ele>350.06</ele>
        <time>2021-07-24T13:47:10Z</time>
      </trkpt>
      <trkpt lat="49.19542" lon="5.43367">
        <ele>349.58</ele>
        <time>2021-07-24T13:47:22Z</time>
      </trkpt>
      <trkpt lat="49.19604" lon="5.43264">
        <ele>348.13</ele>
        <time>2021-07-24T13:47:33Z</time>
      </trkpt>
      <trkpt lat="49.19633" lon="5.43195">
        <ele>348.13</ele>
        <time>2021-07-24T13:47:39Z</time>
      </trkpt>
      <trkpt lat="49.19639" lon="5.43184">
        <ele>346.69</ele>
        <time>2021-07-24T13:47:40Z</time>
      </trkpt>
      <trkpt lat="49.19724" lon="5.43069">
        <ele>342.85</ele>
        <time>2021-07-24T13:47:49Z</time>
      </trkpt>
      <trkpt lat="49.19916" lon="5.42826">
        <ele>336.6</ele>
        <time>2021-07-24T13:48:03Z</time>
      </trkpt>
      <trkpt lat="49.19989" lon="5.42717">
        <ele>337.56</ele>
        <time>2021-07-24T13:48:09Z</time>
      </trkpt>
      <trkpt lat="49.19999" lon="5.42697">
        <ele>337.08</ele>
        <time>2021-07-24T13:48:10Z</time>
      </trkpt>
      <trkpt lat="49.2012" lon="5.42439">
        <ele>335.64</ele>
        <time>2021-07-24T13:48:22Z</time>
      </trkpt>
      <trkpt lat="49.2014" lon="5.424">
        <ele>336.6</ele>
        <time>2021-07-24T13:48:25Z</time>
      </trkpt>
      <trkpt lat="49.20152" lon="5.42386">
        <ele>336.12</ele>
        <time>2021-07-24T13:48:26Z</time>
      </trkpt>
      <trkpt lat="49.20178" lon="5.42359">
        <ele>336.12</ele>
        <time>2021-07-24T13:48:27Z</time>
      </trkpt>
      <trkpt lat="49.20341" lon="5.42192">
        <ele>337.56</ele>
        <time>2021-07-24T13:48:40Z</time>
      </trkpt>
      <trkpt lat="49.20432" lon="5.42105">
        <ele>338.52</ele>
        <time>2021-07-24T13:48:49Z</time>
      </trkpt>
      <trkpt lat="49.20438" lon="5.42101">
        <ele>338.52</ele>
        <time>2021-07-24T13:48:50Z</time>
      </trkpt>
      <trkpt lat="49.20442" lon="5.42098">
        <ele>339</ele>
        <time>2021-07-24T13:48:51Z</time>
      </trkpt>
      <trkpt lat="49.20445" lon="5.42096">
        <ele>339.48</ele>
        <time>2021-07-24T13:48:52Z</time>
      </trkpt>
      <trkpt lat="49.20447" lon="5.42095">
        <ele>339.48</ele>
        <time>2021-07-24T13:48:53Z</time>
      </trkpt>
      <trkpt lat="49.20448" lon="5.42094">
        <ele>339.48</ele>
        <time>2021-07-24T13:48:54Z</time>
      </trkpt>
      <trkpt lat="49.2045" lon="5.42093">
        <ele>339.96</ele>
        <time>2021-07-24T13:48:55Z</time>
      </trkpt>
      <trkpt lat="49.20452" lon="5.42091">
        <ele>339.96</ele>
        <time>2021-07-24T13:48:56Z</time>
      </trkpt>
      <trkpt lat="49.20455" lon="5.42089">
        <ele>339.96</ele>
        <time>2021-07-24T13:48:57Z</time>
      </trkpt>
      <trkpt lat="49.20459" lon="5.42087">
        <ele>340.44</ele>
        <time>2021-07-24T13:48:58Z</time>
      </trkpt>
      <trkpt lat="49.20464" lon="5.42086">
        <ele>340.92</ele>
        <time>2021-07-24T13:48:59Z</time>
      </trkpt>
      <trkpt lat="49.20469" lon="5.42086">
        <ele>341.41</ele>
        <time>2021-07-24T13:49:00Z</time>
      </trkpt>
      <trkpt lat="49.20473" lon="5.42086">
        <ele>341.89</ele>
        <time>2021-07-24T13:49:01Z</time>
      </trkpt>
      <trkpt lat="49.20478" lon="5.42087">
        <ele>342.37</ele>
        <time>2021-07-24T13:49:02Z</time>
      </trkpt>
      <trkpt lat="49.20484" lon="5.42087">
        <ele>342.85</ele>
        <time>2021-07-24T13:49:03Z</time>
      </trkpt>
      <trkpt lat="49.20576" lon="5.42116">
        <ele>349.58</ele>
        <time>2021-07-24T13:49:14Z</time>
      </trkpt>
      <trkpt lat="49.20665" lon="5.42148">
        <ele>354.86</ele>
        <time>2021-07-24T13:49:28Z</time>
      </trkpt>
      <trkpt lat="49.20698" lon="5.42186">
        <ele>357.27</ele>
        <time>2021-07-24T13:49:38Z</time>
      </trkpt>
      <trkpt lat="49.20721" lon="5.42228">
        <ele>358.71</ele>
        <time>2021-07-24T13:49:44Z</time>
      </trkpt>
      <trkpt lat="49.20724" lon="5.42235">
        <ele>359.19</ele>
        <time>2021-07-24T13:49:45Z</time>
      </trkpt>
      <trkpt lat="49.20727" lon="5.42241">
        <ele>359.67</ele>
        <time>2021-07-24T13:49:46Z</time>
      </trkpt>
      <trkpt lat="49.20729" lon="5.42246">
        <ele>360.15</ele>
        <time>2021-07-24T13:49:47Z</time>
      </trkpt>
      <trkpt lat="49.20731" lon="5.42249">
        <ele>360.15</ele>
        <time>2021-07-24T13:49:48Z</time>
      </trkpt>
      <trkpt lat="49.20732" lon="5.42251">
        <ele>359.67</ele>
        <time>2021-07-24T13:49:49Z</time>
      </trkpt>
      <trkpt lat="49.20733" lon="5.42253">
        <ele>360.15</ele>
        <time>2021-07-24T13:49:50Z</time>
      </trkpt>
      <trkpt lat="49.20734" lon="5.42256">
        <ele>359.67</ele>
        <time>2021-07-24T13:49:51Z</time>
      </trkpt>
      <trkpt lat="49.20736" lon="5.42259">
        <ele>359.67</ele>
        <time>2021-07-24T13:49:52Z</time>
      </trkpt>
      <trkpt lat="49.20737" lon="5.42262">
        <ele>359.67</ele>
        <time>2021-07-24T13:49:53Z</time>
      </trkpt>
      <trkpt lat="49.20739" lon="5.42266">
        <ele>359.67</ele>
        <time>2021-07-24T13:49:54Z</time>
      </trkpt>
      <trkpt lat="49.20741" lon="5.4227">
        <ele>359.67</ele>
        <time>2021-07-24T13:49:55Z</time>
      </trkpt>
      <trkpt lat="49.20743" lon="5.42274">
        <ele>359.67</ele>
        <time>2021-07-24T13:49:56Z</time>
      </trkpt>
      <trkpt lat="49.20747" lon="5.42283">
        <ele>360.15</ele>
        <time>2021-07-24T13:49:57Z</time>
      </trkpt>
      <trkpt lat="49.20757" lon="5.42305">
        <ele>361.11</ele>
        <time>2021-07-24T13:50:08Z</time>
      </trkpt>
      <trkpt lat="49.20757" lon="5.42305">
        <ele>361.11</ele>
        <time>2021-07-24T13:54:29Z</time>
      </trkpt>
      <trkpt lat="49.20782" lon="5.42277">
        <ele>361.59</ele>
        <time>2021-07-24T13:54:35Z</time>
      </trkpt>
      <trkpt lat="49.20815" lon="5.42279">
        <ele>361.11</ele>
        <time>2021-07-24T13:54:48Z</time>
      </trkpt>
      <trkpt lat="49.20839" lon="5.42284">
        <ele>360.63</ele>
        <time>2021-07-24T13:55:02Z</time>
      </trkpt>
      <trkpt lat="49.20854" lon="5.42297">
        <ele>359.19</ele>
        <time>2021-07-24T13:56:07Z</time>
      </trkpt>
      <trkpt lat="49.20875" lon="5.42341">
        <ele>359.67</ele>
        <time>2021-07-24T13:56:22Z</time>
      </trkpt>
      <trkpt lat="49.20877" lon="5.42346">
        <ele>359.67</ele>
        <time>2021-07-24T13:56:36Z</time>
      </trkpt>
      <trkpt lat="49.20882" lon="5.42356">
        <ele>359.67</ele>
        <time>2021-07-24T13:56:52Z</time>
      </trkpt>
      <trkpt lat="49.20879" lon="5.42368">
        <ele>359.19</ele>
        <time>2021-07-24T13:56:56Z</time>
      </trkpt>
      <trkpt lat="49.20872" lon="5.4238">
        <ele>359.67</ele>
        <time>2021-07-24T13:57:00Z</time>
      </trkpt>
      <trkpt lat="49.20875" lon="5.42391">
        <ele>360.15</ele>
        <time>2021-07-24T13:57:09Z</time>
      </trkpt>
      <trkpt lat="49.20874" lon="5.42392">
        <ele>358.71</ele>
        <time>2021-07-24T14:05:43Z</time>
      </trkpt>
      <trkpt lat="49.20875" lon="5.42394">
        <ele>358.71</ele>
        <time>2021-07-24T14:07:28Z</time>
      </trkpt>
      <trkpt lat="49.20883" lon="5.42442">
        <ele>359.19</ele>
        <time>2021-07-24T14:07:42Z</time>
      </trkpt>
      <trkpt lat="49.20881" lon="5.42513">
        <ele>358.23</ele>
        <time>2021-07-24T14:07:56Z</time>
      </trkpt>
      <trkpt lat="49.20872" lon="5.42534">
        <ele>357.75</ele>
        <time>2021-07-24T14:08:07Z</time>
      </trkpt>
      <trkpt lat="49.20868" lon="5.42537">
        <ele>357.75</ele>
        <time>2021-07-24T14:08:14Z</time>
      </trkpt>
      <trkpt lat="49.20864" lon="5.42533">
        <ele>357.75</ele>
        <time>2021-07-24T14:08:18Z</time>
      </trkpt>
      <trkpt lat="49.20863" lon="5.4253">
        <ele>357.75</ele>
        <time>2021-07-24T14:08:19Z</time>
      </trkpt>
      <trkpt lat="49.20861" lon="5.42527">
        <ele>357.75</ele>
        <time>2021-07-24T14:08:20Z</time>
      </trkpt>
      <trkpt lat="49.2086" lon="5.42524">
        <ele>357.75</ele>
        <time>2021-07-24T14:08:21Z</time>
      </trkpt>
      <trkpt lat="49.20822" lon="5.42444">
        <ele>357.75</ele>
        <time>2021-07-24T14:08:37Z</time>
      </trkpt>
      <trkpt lat="49.20787" lon="5.4237">
        <ele>357.27</ele>
        <time>2021-07-24T14:08:54Z</time>
      </trkpt>
      <trkpt lat="49.20728" lon="5.42242">
        <ele>356.31</ele>
        <time>2021-07-24T14:09:13Z</time>
      </trkpt>
      <trkpt lat="49.20664" lon="5.42147">
        <ele>354.38</ele>
        <time>2021-07-24T14:09:31Z</time>
      </trkpt>
      <trkpt lat="49.20599" lon="5.42123">
        <ele>351.5</ele>
        <time>2021-07-24T14:09:47Z</time>
      </trkpt>
      <trkpt lat="49.20494" lon="5.4209">
        <ele>342.85</ele>
        <time>2021-07-24T14:10:06Z</time>
      </trkpt>
      <trkpt lat="49.20456" lon="5.42088">
        <ele>339.48</ele>
        <time>2021-07-24T14:10:15Z</time>
      </trkpt>
      <trkpt lat="49.20437" lon="5.42101">
        <ele>337.56</ele>
        <time>2021-07-24T14:10:32Z</time>
      </trkpt>
      <trkpt lat="49.20362" lon="5.42171">
        <ele>337.56</ele>
        <time>2021-07-24T14:10:42Z</time>
      </trkpt>
      <trkpt lat="49.20228" lon="5.42308">
        <ele>336.6</ele>
        <time>2021-07-24T14:10:56Z</time>
      </trkpt>
      <trkpt lat="49.20148" lon="5.42389">
        <ele>338.52</ele>
        <time>2021-07-24T14:11:04Z</time>
      </trkpt>
      <trkpt lat="49.2014" lon="5.42402">
        <ele>338.04</ele>
        <time>2021-07-24T14:11:05Z</time>
      </trkpt>
      <trkpt lat="49.20132" lon="5.42415">
        <ele>336.6</ele>
        <time>2021-07-24T14:11:06Z</time>
      </trkpt>
      <trkpt lat="49.20013" lon="5.42666">
        <ele>334.68</ele>
        <time>2021-07-24T14:11:22Z</time>
      </trkpt>
      <trkpt lat="49.19916" lon="5.42825">
        <ele>337.08</ele>
        <time>2021-07-24T14:11:33Z</time>
      </trkpt>
      <trkpt lat="49.19828" lon="5.42937">
        <ele>339</ele>
        <time>2021-07-24T14:11:44Z</time>
      </trkpt>
      <trkpt lat="49.1976" lon="5.43024">
        <ele>339.96</ele>
        <time>2021-07-24T14:11:56Z</time>
      </trkpt>
      <trkpt lat="49.1967" lon="5.43138">
        <ele>344.77</ele>
        <time>2021-07-24T14:12:10Z</time>
      </trkpt>
      <trkpt lat="49.19617" lon="5.43237">
        <ele>348.62</ele>
        <time>2021-07-24T14:12:22Z</time>
      </trkpt>
      <trkpt lat="49.19564" lon="5.43335">
        <ele>351.5</ele>
        <time>2021-07-24T14:12:33Z</time>
      </trkpt>
      <trkpt lat="49.19475" lon="5.43464">
        <ele>352.46</ele>
        <time>2021-07-24T14:12:50Z</time>
      </trkpt>
      <trkpt lat="49.19472" lon="5.43468">
        <ele>352.46</ele>
        <time>2021-07-24T14:12:51Z</time>
      </trkpt>
      <trkpt lat="49.1947" lon="5.43472">
        <ele>352.46</ele>
        <time>2021-07-24T14:12:52Z</time>
      </trkpt>
      <trkpt lat="49.19468" lon="5.43475">
        <ele>352.46</ele>
        <time>2021-07-24T14:12:53Z</time>
      </trkpt>
      <trkpt lat="49.19466" lon="5.43477">
        <ele>352.46</ele>
        <time>2021-07-24T14:12:54Z</time>
      </trkpt>
      <trkpt lat="49.19466" lon="5.43477">
        <ele>351.98</ele>
        <time>2021-07-24T14:13:03Z</time>
      </trkpt>
      <trkpt lat="49.19461" lon="5.43474">
        <ele>351.98</ele>
        <time>2021-07-24T14:13:04Z</time>
      </trkpt>
      <trkpt lat="49.19459" lon="5.43472">
        <ele>351.02</ele>
        <time>2021-07-24T14:13:05Z</time>
      </trkpt>
      <trkpt lat="49.19457" lon="5.43471">
        <ele>350.54</ele>
        <time>2021-07-24T14:13:06Z</time>
      </trkpt>
      <trkpt lat="49.19455" lon="5.43469">
        <ele>350.06</ele>
        <time>2021-07-24T14:13:07Z</time>
      </trkpt>
      <trkpt lat="49.19451" lon="5.43398">
        <ele>348.62</ele>
        <time>2021-07-24T14:13:17Z</time>
      </trkpt>
      <trkpt lat="49.19451" lon="5.43349">
        <ele>348.62</ele>
        <time>2021-07-24T14:13:30Z</time>
      </trkpt>
      <trkpt lat="49.19473" lon="5.43309">
        <ele>347.65</ele>
        <time>2021-07-24T14:13:46Z</time>
      </trkpt>
      <trkpt lat="49.19498" lon="5.43284">
        <ele>345.25</ele>
        <time>2021-07-24T14:13:57Z</time>
      </trkpt>
      <trkpt lat="49.19502" lon="5.43283">
        <ele>345.25</ele>
        <time>2021-07-24T14:14:07Z</time>
      </trkpt>
      <trkpt lat="49.19526" lon="5.43287">
        <ele>345.73</ele>
        <time>2021-07-24T14:14:22Z</time>
      </trkpt>
      <trkpt lat="49.19533" lon="5.433">
        <ele>345.73</ele>
        <time>2021-07-24T14:14:35Z</time>
      </trkpt>
      <trkpt lat="49.19533" lon="5.43301">
        <ele>345.25</ele>
        <time>2021-07-24T14:17:20Z</time>
      </trkpt>
      <trkpt lat="49.19533" lon="5.43301">
        <ele>344.77</ele>
        <time>2021-07-24T14:20:08Z</time>
      </trkpt>
      <trkpt lat="49.19532" lon="5.43301">
        <ele>344.29</ele>
        <time>2021-07-24T14:24:46Z</time>
      </trkpt>
      <trkpt lat="49.19532" lon="5.43302">
        <ele>343.81</ele>
        <time>2021-07-24T14:27:53Z</time>
      </trkpt>
      <trkpt lat="49.19533" lon="5.433">
        <ele>346.21</ele>
        <time>2021-07-24T14:39:30Z</time>
      </trkpt>
      <trkpt lat="49.19533" lon="5.43299">
        <ele>346.21</ele>
        <time>2021-07-24T14:42:44Z</time>
      </trkpt>
      <trkpt lat="49.19533" lon="5.43299">
        <ele>346.69</ele>
        <time>2021-07-24T14:46:17Z</time>
      </trkpt>
      <trkpt lat="49.19532" lon="5.433">
        <ele>346.69</ele>
        <time>2021-07-24T14:50:01Z</time>
      </trkpt>
      <trkpt lat="49.19533" lon="5.43301">
        <ele>346.69</ele>
        <time>2021-07-24T14:53:24Z</time>
      </trkpt>
      <trkpt lat="49.19533" lon="5.43301">
        <ele>346.69</ele>
        <time>2021-07-24T14:56:16Z</time>
      </trkpt>
      <trkpt lat="49.19533" lon="5.43301">
        <ele>346.21</ele>
        <time>2021-07-24T14:58:46Z</time>
      </trkpt>
      <trkpt lat="49.19533" lon="5.43302">
        <ele>345.73</ele>
        <time>2021-07-24T15:01:59Z</time>
      </trkpt>
      <trkpt lat="49.19533" lon="5.43303">
        <ele>345.25</ele>
        <time>2021-07-24T15:04:51Z</time>
      </trkpt>
      <trkpt lat="49.19533" lon="5.43302">
        <ele>344.77</ele>
        <time>2021-07-24T15:07:08Z</time>
      </trkpt>
      <trkpt lat="49.19533" lon="5.43302">
        <ele>344.77</ele>
        <time>2021-07-24T15:11:17Z</time>
      </trkpt>
      <trkpt lat="49.19534" lon="5.43302">
        <ele>345.25</ele>
        <time>2021-07-24T15:14:30Z</time>
      </trkpt>
    </trkseg>
  </trk>
</gpx>